Time;durP1;ratioP1;P1;durP2;ratioP2;P2;SDS_P1;SDS_P2;PMS_P1;PMS_P2;Temp;Humidity;BMP_temperature;BMP_pressure;BME280_temperature;BME280_humidity;BME280_pressure;Samples;Min_cycle;Max_cycle;Signal;HPM_P1;HPM_P2
2023/10/08 00:02:05;;;;;;;21.52;5.72;;;16.20;99.90;;;;;;5003439;28;20019;-93
2023/10/08 00:04:37;;;;;;;21.48;4.68;;;16.20;99.90;;;;;;5001663;28;20022;-93
2023/10/08 00:07:07;;;;;;;15.65;4.38;;;16.20;99.90;;;;;;5000236;28;20033;-94
2023/10/08 00:09:36;;;;;;;14.52;4.03;;;16.10;99.90;;;;;;4998666;28;20022;-94
2023/10/08 00:12:05;;;;;;;16.67;5.15;;;16.10;99.90;;;;;;4995878;28;20402;-94
2023/10/08 00:14:43;;;;;;;17.63;4.80;;;16.10;99.90;;;;;;4995298;28;20022;-94
2023/10/08 00:17:12;;;;;;;17.80;4.35;;;16.10;99.90;;;;;;4996356;28;20125;-93
2023/10/08 00:19:39;;;;;;;19.45;5.13;;;16.10;99.90;;;;;;4999001;28;20026;-93
2023/10/08 00:22:06;;;;;;;12.02;4.65;;;16.10;99.90;;;;;;4997279;28;20040;-95
2023/10/08 00:24:33;;;;;;;26.92;5.30;;;16.00;99.90;;;;;;5001919;28;20034;-93
2023/10/08 00:27:00;;;;;;;15.98;4.97;;;16.00;99.90;;;;;;4996616;28;20030;-93
2023/10/08 00:29:26;;;;;;;16.58;5.40;;;16.10;99.90;;;;;;4995784;28;20034;-91
2023/10/08 00:31:56;;;;;;;14.77;4.20;;;16.00;99.90;;;;;;4994186;28;20041;-93
2023/10/08 00:34:24;;;;;;;17.38;4.43;;;16.10;99.90;;;;;;4993423;28;20026;-93
2023/10/08 00:36:50;;;;;;;19.73;5.07;;;16.00;99.90;;;;;;4993857;28;20033;-93
2023/10/08 00:39:22;;;;;;;20.20;4.88;;;16.00;99.90;;;;;;4993580;28;20046;-94
2023/10/08 00:41:49;;;;;;;14.10;4.88;;;16.00;99.90;;;;;;4993751;28;20033;-94
2023/10/08 00:44:22;;;;;;;11.73;4.80;;;16.00;99.90;;;;;;4994599;28;20034;-93
2023/10/08 00:46:51;;;;;;;14.88;5.38;;;16.00;99.90;;;;;;4993059;28;20049;-94
2023/10/08 00:51:56;;;;;;;15.65;5.60;;;16.00;99.90;;;;;;4994236;28;20030;-94
2023/10/08 00:54:24;;;;;;;17.40;4.78;;;16.00;99.90;;;;;;4993279;28;20080;-94
2023/10/08 00:56:57;;;;;;;20.95;5.55;;;16.00;99.90;;;;;;4993075;28;20384;-94
2023/10/08 00:59:24;;;;;;;18.35;5.95;;;16.00;99.90;;;;;;4993244;28;20042;-94
2023/10/08 01:01:51;;;;;;;13.10;5.43;;;15.90;99.90;;;;;;4992983;28;20018;-92
2023/10/08 01:04:23;;;;;;;17.25;5.72;;;15.90;99.90;;;;;;4993202;28;20041;-93
2023/10/08 01:06:55;;;;;;;18.02;5.97;;;15.90;99.90;;;;;;4993531;28;20031;-92
2023/10/08 01:09:35;;;;;;;17.08;5.88;;;15.90;99.90;;;;;;4995965;28;20030;-96
2023/10/08 01:12:15;;;;;;;20.15;5.68;;;15.80;99.90;;;;;;4997368;28;20109;-93
2023/10/08 01:14:42;;;;;;;19.55;6.13;;;15.80;99.90;;;;;;4997197;28;20471;-94
2023/10/08 01:17:12;;;;;;;20.75;7.05;;;15.80;99.90;;;;;;4996356;28;20037;-93
2023/10/08 01:19:39;;;;;;;19.70;5.50;;;15.70;99.90;;;;;;4996549;28;20041;-92
2023/10/08 01:22:13;;;;;;;19.00;6.40;;;15.70;99.90;;;;;;4996498;28;20026;-94
2023/10/08 01:24:39;;;;;;;16.02;5.30;;;15.70;99.90;;;;;;4997679;28;20038;-93
2023/10/08 01:27:04;;;;;;;21.45;5.65;;;15.70;99.90;;;;;;4996743;28;20490;-95
2023/10/08 01:29:31;;;;;;;16.80;5.95;;;15.70;99.90;;;;;;4996370;28;20026;-93
2023/10/08 01:31:57;;;;;;;17.63;5.53;;;15.60;99.90;;;;;;4996229;28;20041;-93
2023/10/08 01:34:36;;;;;;;20.50;6.05;;;15.60;99.90;;;;;;4997044;28;20026;-94
2023/10/08 01:37:08;;;;;;;19.27;5.97;;;15.60;99.90;;;;;;5013153;28;20034;-93
2023/10/08 01:39:37;;;;;;;20.60;5.97;;;15.50;99.90;;;;;;4996880;28;20038;-92
2023/10/08 01:42:05;;;;;;;19.67;6.32;;;15.50;99.90;;;;;;4996554;28;20034;-93
2023/10/08 01:44:33;;;;;;;12.52;5.60;;;15.50;99.90;;;;;;4997964;28;20026;-94
2023/10/08 01:47:01;;;;;;;14.73;5.80;;;15.50;99.90;;;;;;4997797;28;20046;-93
2023/10/08 01:49:32;;;;;;;15.90;5.85;;;15.40;99.90;;;;;;4996978;28;20026;-93
2023/10/08 01:51:57;;;;;;;15.10;6.43;;;15.40;99.90;;;;;;4997706;28;20034;-93
2023/10/08 01:54:26;;;;;;;19.10;5.68;;;15.40;99.90;;;;;;4997051;28;20113;-93
2023/10/08 01:56:51;;;;;;;18.50;6.85;;;15.40;99.90;;;;;;4996025;28;20503;-94
2023/10/08 01:59:17;;;;;;;20.60;6.65;;;15.40;99.90;;;;;;4998386;28;20038;-94
2023/10/08 02:01:45;;;;;;;24.85;8.13;;;15.40;99.90;;;;;;4996400;28;20407;-95
2023/10/08 02:04:16;;;;;;;23.42;7.18;;;15.30;99.90;;;;;;4996810;28;20030;-94
2023/10/08 02:06:41;;;;;;;19.83;6.97;;;15.30;99.90;;;;;;5011938;28;20030;-92
2023/10/08 02:09:07;;;;;;;29.48;7.63;;;15.20;99.90;;;;;;4995987;28;20038;-94
2023/10/08 02:11:50;;;;;;;25.27;7.07;;;15.20;99.90;;;;;;4995812;28;20062;-94
2023/10/08 02:14:20;;;;;;;27.38;7.32;;;15.10;99.90;;;;;;4996042;28;20034;-94
2023/10/08 02:16:47;;;;;;;23.60;7.30;;;15.10;99.90;;;;;;4996347;28;20430;-94
2023/10/08 02:19:13;;;;;;;22.33;8.60;;;15.10;99.90;;;;;;4995258;28;20062;-93
2023/10/08 02:21:40;;;;;;;25.73;7.38;;;15.10;99.90;;;;;;5012979;28;20030;-93
2023/10/08 02:24:08;;;;;;;24.70;7.93;;;15.00;99.90;;;;;;4998206;28;20042;-94
2023/10/08 02:26:34;;;;;;;28.88;7.82;;;15.00;99.90;;;;;;4996135;28;20028;-95
2023/10/08 02:29:01;;;;;;;29.33;8.02;;;15.00;99.90;;;;;;4994938;28;20031;-93
2023/10/08 02:31:27;;;;;;;29.35;7.82;;;15.00;99.90;;;;;;4995684;28;20049;-95
2023/10/08 02:33:55;;;;;;;24.33;6.70;;;15.00;99.90;;;;;;4994815;28;20022;-93
2023/10/08 02:36:20;;;;;;;19.55;7.03;;;15.00;99.90;;;;;;5007612;28;20027;-93
2023/10/08 02:38:46;;;;;;;24.48;7.00;;;15.00;99.90;;;;;;5011594;28;20045;-93
2023/10/08 02:41:18;;;;;;;26.33;6.97;;;15.00;99.90;;;;;;4995486;28;20387;-93
2023/10/08 02:43:45;;;;;;;25.13;6.63;;;15.00;99.90;;;;;;4995581;28;20122;-92
2023/10/08 02:46:15;;;;;;;24.23;6.13;;;15.00;99.90;;;;;;4995595;28;20126;-93
2023/10/08 02:48:41;;;;;;;25.52;7.95;;;15.00;99.90;;;;;;4996096;28;20030;-95
2023/10/08 02:51:14;;;;;;;26.63;6.90;;;14.90;99.90;;;;;;4999892;28;20030;-94
2023/10/08 02:53:42;;;;;;;23.10;6.43;;;14.90;99.90;;;;;;5003454;28;20110;-93
2023/10/08 02:56:12;;;;;;;27.20;6.43;;;14.90;99.90;;;;;;5012779;28;20023;-93
2023/10/08 02:58:39;;;;;;;17.17;6.30;;;14.90;99.90;;;;;;5019000;28;20030;-92
2023/10/08 03:01:05;;;;;;;19.98;6.80;;;14.90;99.90;;;;;;5008526;28;20125;-93
2023/10/08 03:03:32;;;;;;;23.10;6.65;;;14.90;99.90;;;;;;5001635;28;20049;-93
2023/10/08 03:05:58;;;;;;;17.65;6.57;;;14.90;99.90;;;;;;5003009;28;20033;-92
2023/10/08 03:08:24;;;;;;;26.63;6.07;;;14.80;99.90;;;;;;5020587;28;20030;-92
2023/10/08 03:11:02;;;;;;;32.05;7.05;;;14.80;99.90;;;;;;5002607;28;20026;-93
2023/10/08 03:13:28;;;;;;;21.85;6.47;;;14.80;99.90;;;;;;5004355;28;20030;-94
2023/10/08 03:16:08;;;;;;;17.73;5.88;;;14.80;99.90;;;;;;4998312;28;20080;-93
2023/10/08 03:18:41;;;;;;;22.20;6.03;;;14.70;99.90;;;;;;4996510;28;20042;-94
2023/10/08 03:21:43;;;;;;;18.20;5.63;;;14.70;99.90;;;;;;4997358;28;20022;-93
2023/10/08 03:24:29;;;;;;;24.02;6.47;;;14.60;99.90;;;;;;4999968;28;20034;-94
2023/10/08 03:27:05;;;;;;;19.42;5.70;;;14.60;99.90;;;;;;4996660;28;20022;-93
2023/10/08 03:29:32;;;;;;;22.05;6.78;;;14.60;99.90;;;;;;4996571;28;20069;-93
2023/10/08 03:31:57;;;;;;;27.55;7.22;;;14.60;99.90;;;;;;4995050;28;20070;-93
2023/10/08 03:34:28;;;;;;;18.95;6.45;;;14.50;99.90;;;;;;4995669;28;20018;-93
2023/10/08 03:36:59;;;;;;;25.45;8.40;;;14.50;99.90;;;;;;4994876;28;20027;-94
2023/10/08 03:39:50;;;;;;;22.30;7.63;;;14.40;99.90;;;;;;4995209;28;20078;-93
2023/10/08 03:42:13;;;;;;;22.50;7.00;;;14.40;99.90;;;;;;4994946;28;20019;-92
2023/10/08 03:44:42;;;;;;;23.30;7.25;;;14.30;99.90;;;;;;4995605;28;20050;-93
2023/10/08 03:47:11;;;;;;;22.30;6.45;;;14.30;99.90;;;;;;4994364;28;20048;-93
2023/10/08 03:49:44;;;;;;;27.98;8.80;;;14.30;99.90;;;;;;4994656;28;20113;-93
2023/10/08 03:52:10;;;;;;;16.40;7.22;;;14.20;99.90;;;;;;4994179;28;20030;-94
2023/10/08 03:54:42;;;;;;;19.00;6.57;;;14.20;99.90;;;;;;4994379;28;20042;-92
2023/10/08 03:57:18;;;;;;;30.55;9.02;;;14.20;99.90;;;;;;4994078;28;20077;-94
2023/10/08 03:59:48;;;;;;;22.95;6.47;;;14.20;99.90;;;;;;4993894;28;20034;-94
2023/10/08 04:02:15;;;;;;;27.77;7.50;;;14.20;99.90;;;;;;4990450;28;20058;-92
2023/10/08 04:04:57;;;;;;;28.20;8.70;;;14.20;99.90;;;;;;4991050;28;20066;-94
2023/10/08 04:08:16;;;;;;;22.25;6.70;;;14.20;99.90;;;;;;4990652;28;20055;-94
2023/10/08 04:12:43;;;;;;;31.60;8.38;;;14.10;99.90;;;;;;4975472;28;20038;-93
2023/10/08 04:15:12;;;;;;;22.88;7.13;;;14.10;99.90;;;;;;4990560;28;20500;-93
2023/10/08 04:17:44;;;;;;;28.95;8.40;;;14.10;99.90;;;;;;4974701;28;20027;-92
2023/10/08 04:20:30;;;;;;;24.35;8.15;;;14.10;99.90;;;;;;4990538;28;20039;-92
2023/10/08 04:22:59;;;;;;;29.77;7.95;;;14.10;99.90;;;;;;4976041;28;20125;-94
2023/10/08 04:25:27;;;;;;;25.60;9.13;;;14.10;99.90;;;;;;4992184;28;20027;-93
2023/10/08 04:28:00;;;;;;;22.70;7.40;;;14.10;99.90;;;;;;4993175;28;20410;-93
2023/10/08 04:30:32;;;;;;;23.52;8.43;;;14.10;99.90;;;;;;4991706;28;20027;-94
2023/10/08 04:33:07;;;;;;;28.15;7.93;;;14.00;99.90;;;;;;4975819;28;20034;-94
2023/10/08 04:35:44;;;;;;;26.38;8.30;;;14.00;99.90;;;;;;4991005;28;20117;-93
2023/10/08 04:38:11;;;;;;;24.85;8.00;;;14.00;99.90;;;;;;4990485;28;20035;-93
2023/10/08 04:40:48;;;;;;;40.17;9.45;;;14.00;99.90;;;;;;4990581;28;20034;-93
2023/10/08 04:43:30;;;;;;;22.77;8.25;;;14.00;99.90;;;;;;4991510;28;20078;-94
2023/10/08 04:45:57;;;;;;;43.28;10.05;;;14.00;99.90;;;;;;4993271;28;20055;-93
2023/10/08 04:48:24;;;;;;;24.75;8.18;;;14.00;99.90;;;;;;4993501;28;20031;-93
2023/10/08 04:50:58;;;;;;;28.98;8.48;;;14.00;99.90;;;;;;4977298;28;20033;-93
2023/10/08 04:53:36;;;;;;;28.02;8.10;;;14.00;99.90;;;;;;4993783;28;20041;-93
2023/10/08 04:56:16;;;;;;;23.27;8.15;;;14.00;99.90;;;;;;4993680;28;20019;-94
2023/10/08 04:58:47;;;;;;;36.85;9.55;;;14.00;99.90;;;;;;4977455;28;20035;-92
2023/10/08 05:01:17;;;;;;;29.50;8.30;;;14.00;99.90;;;;;;4993653;28;20035;-92
2023/10/08 05:06:50;;;;;;;26.08;7.95;;;14.00;99.90;;;;;;4978416;28;20019;-93
2023/10/08 05:17:09;;;;;;;36.10;11.95;;;14.00;99.90;;;;;;4978423;28;20081;-93
2023/10/08 05:23:06;;;;;;;38.92;12.20;;;14.00;99.90;;;;;;4978195;28;20023;-93
2023/10/08 05:36:18;;;;;;;35.40;10.93;;;14.10;99.90;;;;;;4918740;29;20043;-95
2023/10/08 05:39:00;;;;;;;33.72;10.90;;;14.10;99.90;;;;;;4917638;29;20052;-93
2023/10/08 05:41:38;;;;;;;40.30;13.15;;;14.10;99.90;;;;;;4918170;29;20171;-94
2023/10/08 05:44:14;;;;;;;39.60;13.38;;;14.10;99.90;;;;;;4918009;29;20044;-94
2023/10/08 05:46:51;;;;;;;36.22;11.95;;;14.10;99.90;;;;;;4917808;29;20135;-95
2023/10/08 05:49:36;;;;;;;27.80;10.10;;;14.20;99.90;;;;;;4917955;29;20474;-94
2023/10/08 05:54:36;;;;;;;34.30;10.82;;;14.10;99.90;;;;;;4917193;29;20110;-94
2023/10/08 06:13:10;;;;;;;30.83;8.20;;;14.00;99.90;;;;;;4994885;28;20098;-94
2023/10/08 06:15:48;;;;;;;24.73;8.63;;;14.00;99.90;;;;;;5010816;28;20047;-92
2023/10/08 06:18:28;;;;;;;23.17;9.35;;;13.90;99.90;;;;;;5011076;28;20047;-94
2023/10/08 06:20:58;;;;;;;23.40;8.70;;;14.00;99.90;;;;;;4995244;28;20035;-93
2023/10/08 06:23:32;;;;;;;27.92;7.57;;;13.90;99.90;;;;;;4998151;28;20131;-93
2023/10/08 06:28:38;;;;;;;25.98;8.02;;;14.00;99.90;;;;;;5013881;28;20033;-94
2023/10/08 06:31:06;;;;;;;28.23;10.18;;;14.00;99.90;;;;;;5020690;28;20054;-94
2023/10/08 06:33:33;;;;;;;31.38;10.00;;;14.00;99.90;;;;;;5014729;28;20027;-92
2023/10/08 06:36:06;;;;;;;28.52;10.73;;;14.00;99.90;;;;;;5013626;28;20026;-93
2023/10/08 06:38:33;;;;;;;27.65;10.82;;;14.10;99.90;;;;;;5014313;28;20030;-94
2023/10/08 06:41:00;;;;;;;27.55;10.45;;;14.10;99.90;;;;;;5013986;28;20126;-93
2023/10/08 06:43:27;;;;;;;32.80;11.35;;;14.10;99.90;;;;;;5013441;28;20042;-91
2023/10/08 06:45:53;;;;;;;29.13;11.80;;;14.10;99.90;;;;;;5012771;28;20053;-92
2023/10/08 06:48:20;;;;;;;33.33;11.98;;;14.20;99.90;;;;;;5018942;28;20022;-93
2023/10/08 06:50:47;;;;;;;38.75;12.48;;;14.20;99.90;;;;;;5013634;28;20105;-95
2023/10/08 06:53:14;;;;;;;33.72;12.60;;;14.20;99.90;;;;;;5012893;28;20039;-92
2023/10/08 06:55:43;;;;;;;36.90;12.80;;;14.20;99.90;;;;;;5012573;28;20121;-93
2023/10/08 06:58:09;;;;;;;39.10;14.57;;;14.20;99.90;;;;;;5011982;28;20026;-93
2023/10/08 07:00:39;;;;;;;51.42;13.98;;;14.20;99.90;;;;;;5013049;28;20035;-93
2023/10/08 07:03:17;;;;;;;61.33;18.85;;;14.20;99.90;;;;;;5013655;28;20037;-93
2023/10/08 07:05:54;;;;;;;48.33;16.23;;;14.30;99.90;;;;;;5013162;28;20049;-93
2023/10/08 07:08:23;;;;;;;43.03;14.40;;;14.20;99.90;;;;;;5012542;28;20054;-93
2023/10/08 07:10:52;;;;;;;34.35;12.35;;;14.30;99.90;;;;;;5011939;28;20030;-93
2023/10/08 07:13:21;;;;;;;34.67;11.98;;;14.30;99.90;;;;;;5011910;28;20026;-93
2023/10/08 07:15:52;;;;;;;28.27;11.27;;;14.30;99.90;;;;;;5011848;28;20026;-95
2023/10/08 07:18:27;;;;;;;33.20;11.40;;;14.30;99.90;;;;;;4998414;28;20451;-94
2023/10/08 07:21:00;;;;;;;27.13;10.23;;;14.30;99.90;;;;;;4993421;28;20080;-93
2023/10/08 07:23:29;;;;;;;27.05;10.93;;;14.30;99.90;;;;;;4993127;28;20026;-94
2023/10/08 07:26:10;;;;;;;30.35;11.00;;;14.40;99.90;;;;;;4994111;28;20023;-93
2023/10/08 07:28:46;;;;;;;48.60;15.10;;;14.40;99.90;;;;;;5009233;28;20027;-93
2023/10/08 07:31:26;;;;;;;47.90;15.50;;;14.40;99.90;;;;;;4992136;28;20014;-92
2023/10/08 07:33:56;;;;;;;44.95;17.65;;;14.40;99.90;;;;;;4994408;28;20173;-93
2023/10/08 07:36:27;;;;;;;56.40;18.65;;;14.50;99.90;;;;;;4994821;28;20124;-92
2023/10/08 07:38:55;;;;;;;54.55;17.60;;;14.50;99.90;;;;;;4996103;28;20038;-93
2023/10/08 07:41:22;;;;;;;52.90;17.35;;;14.50;99.90;;;;;;4995365;28;20062;-93
2023/10/08 07:43:58;;;;;;;62.30;18.65;;;14.50;99.90;;;;;;4996115;28;20101;-94
2023/10/08 07:46:28;;;;;;;59.60;19.15;;;14.50;99.90;;;;;;4993876;28;20128;-93
2023/10/08 07:48:54;;;;;;;50.80;18.70;;;14.50;99.90;;;;;;4992823;28;20030;-93
2023/10/08 07:51:24;;;;;;;52.88;18.77;;;14.60;99.90;;;;;;4994300;28;20042;-94
2023/10/08 07:53:56;;;;;;;57.67;19.08;;;14.60;99.90;;;;;;4993485;28;20112;-93
2023/10/08 07:56:23;;;;;;;53.75;19.15;;;14.60;99.90;;;;;;4992900;28;20049;-92
2023/10/08 07:58:49;;;;;;;52.83;17.80;;;14.60;99.90;;;;;;4993409;28;20041;-93
2023/10/08 08:01:15;;;;;;;60.85;18.73;;;14.60;99.90;;;;;;4992805;28;20022;-93
2023/10/08 08:03:41;;;;;;;66.25;21.20;;;14.60;99.90;;;;;;4993723;28;20041;-93
2023/10/08 08:06:09;;;;;;;61.08;18.42;;;14.60;99.90;;;;;;4993179;28;20033;-93
2023/10/08 08:08:39;;;;;;;64.97;22.85;;;14.60;99.90;;;;;;4992667;28;20030;-95
2023/10/08 08:11:17;;;;;;;62.58;19.60;;;14.60;99.90;;;;;;4993351;28;20023;-94
2023/10/08 08:13:44;;;;;;;52.17;18.00;;;14.70;99.90;;;;;;4993227;28;20057;-92
2023/10/08 08:16:17;;;;;;;63.78;19.83;;;14.70;99.90;;;;;;4995159;28;20026;-93
2023/10/08 08:18:48;;;;;;;62.42;18.80;;;14.70;99.90;;;;;;4995810;28;20455;-93
2023/10/08 08:21:19;;;;;;;61.95;19.42;;;14.80;99.90;;;;;;4997111;28;20026;-93
2023/10/08 08:23:49;;;;;;;54.38;19.17;;;14.80;99.90;;;;;;4997998;28;20042;-92
2023/10/08 08:26:29;;;;;;;73.68;20.52;;;14.80;99.90;;;;;;4996817;28;20030;-93
2023/10/08 08:29:02;;;;;;;60.65;18.30;;;14.80;99.90;;;;;;5012033;28;20081;-93
2023/10/08 08:31:31;;;;;;;56.72;19.95;;;14.80;99.90;;;;;;4991615;28;20032;-93
2023/10/08 08:34:17;;;;;;;50.45;18.58;;;14.80;99.90;;;;;;5001142;28;20049;-94
2023/10/08 08:36:46;;;;;;;59.22;18.15;;;14.80;99.90;;;;;;5002310;28;20030;-93
2023/10/08 08:39:28;;;;;;;49.35;15.95;;;14.80;99.90;;;;;;4998051;28;20034;-93
2023/10/08 08:42:00;;;;;;;53.45;16.73;;;14.90;99.90;;;;;;4998905;28;20049;-94
2023/10/08 08:44:31;;;;;;;55.22;16.95;;;14.90;99.90;;;;;;4999973;28;20030;-94
2023/10/08 08:47:04;;;;;;;46.17;16.50;;;14.90;99.90;;;;;;5000696;28;20042;-93
2023/10/08 08:49:37;;;;;;;44.85;17.05;;;14.90;99.90;;;;;;4998057;28;20062;-93
2023/10/08 08:52:04;;;;;;;49.33;18.88;;;15.00;99.90;;;;;;4997385;28;20022;-94
2023/10/08 08:54:32;;;;;;;46.63;15.95;;;15.10;99.90;;;;;;4997781;28;20041;-93
2023/10/08 08:57:04;;;;;;;47.85;15.25;;;15.10;99.90;;;;;;5000423;28;20019;-95
2023/10/08 08:59:30;;;;;;;42.05;15.02;;;15.20;99.90;;;;;;5014279;28;20038;-93
2023/10/08 09:02:00;;;;;;;40.88;16.23;;;15.20;99.90;;;;;;4997391;28;20035;-93
2023/10/08 09:04:37;;;;;;;48.17;17.40;;;15.30;99.90;;;;;;4996537;28;20050;-95
2023/10/08 09:07:04;;;;;;;39.95;15.77;;;15.30;99.90;;;;;;5000661;28;20026;-94
2023/10/08 09:09:41;;;;;;;43.70;15.38;;;15.40;99.90;;;;;;4988070;28;20084;-93
2023/10/08 09:12:10;;;;;;;39.25;15.10;;;15.40;99.90;;;;;;5001271;28;20065;-92
2023/10/08 09:14:38;;;;;;;48.42;17.02;;;15.40;99.90;;;;;;4998397;28;20030;-94
2023/10/08 09:17:05;;;;;;;50.15;16.85;;;15.50;99.90;;;;;;5003347;28;20117;-93
2023/10/08 09:19:36;;;;;;;44.92;15.57;;;15.50;99.90;;;;;;5006164;28;20045;-92
2023/10/08 09:22:14;;;;;;;41.95;15.20;;;15.60;99.90;;;;;;5005937;28;20038;-94
2023/10/08 09:24:41;;;;;;;42.50;16.30;;;15.60;99.90;;;;;;5005866;28;20085;-93
2023/10/08 09:27:14;;;;;;;48.33;16.60;;;15.60;99.90;;;;;;5001303;28;20034;-93
2023/10/08 09:29:43;;;;;;;33.72;13.93;;;15.70;99.90;;;;;;5000867;28;20097;-93
2023/10/08 09:32:10;;;;;;;35.85;15.00;;;15.70;99.90;;;;;;4998495;28;20034;-93
2023/10/08 09:34:39;;;;;;;40.97;14.18;;;15.70;99.90;;;;;;5000374;28;20049;-92
2023/10/08 09:37:04;;;;;;;41.42;13.80;;;15.80;99.90;;;;;;4999394;28;20026;-94
2023/10/08 09:39:34;;;;;;;39.70;13.27;;;15.90;99.90;;;;;;5002932;28;20137;-94
2023/10/08 09:42:11;;;;;;;37.80;13.35;;;16.00;99.90;;;;;;5002069;28;20495;-93
2023/10/08 09:44:39;;;;;;;48.38;14.90;;;16.10;99.90;;;;;;5002570;28;20026;-93
2023/10/08 09:47:10;;;;;;;47.97;15.30;;;16.10;99.90;;;;;;5001990;28;20034;-94
2023/10/08 09:49:56;;;;;;;33.92;13.18;;;16.20;99.90;;;;;;5002927;28;20034;-94
2023/10/08 09:52:33;;;;;;;39.65;13.55;;;16.30;99.90;;;;;;5002966;28;20030;-93
2023/10/08 09:55:10;;;;;;;35.78;12.88;;;16.40;99.90;;;;;;5009472;28;20022;-93
2023/10/08 09:57:36;;;;;;;32.85;13.65;;;16.50;99.90;;;;;;5019228;28;20026;-93
2023/10/08 10:00:10;;;;;;;40.95;14.32;;;16.70;99.90;;;;;;5017075;28;20062;-94
2023/10/08 10:02:39;;;;;;;40.97;15.50;;;16.80;99.90;;;;;;5002337;28;20031;-93
2023/10/08 10:05:06;;;;;;;43.95;15.95;;;16.90;99.90;;;;;;4998717;28;20026;-94
2023/10/08 10:07:35;;;;;;;44.92;15.13;;;17.00;99.90;;;;;;4997742;28;20030;-93
2023/10/08 10:10:01;;;;;;;35.75;14.43;;;17.00;99.90;;;;;;4997248;28;20018;-93
2023/10/08 10:12:27;;;;;;;37.03;14.30;;;17.00;99.90;;;;;;4997037;28;20092;-94
2023/10/08 10:14:55;;;;;;;35.78;14.27;;;17.10;99.90;;;;;;4997179;28;20121;-94
2023/10/08 10:17:25;;;;;;;34.30;14.77;;;17.10;99.90;;;;;;4999647;28;20038;-93
2023/10/08 10:19:59;;;;;;;37.30;13.93;;;17.20;99.90;;;;;;5000305;28;20046;-94
2023/10/08 10:22:38;;;;;;;36.78;14.05;;;17.30;99.90;;;;;;4997833;28;20050;-93
2023/10/08 10:25:26;;;;;;;33.03;12.90;;;17.40;99.90;;;;;;4996786;28;20062;-93
2023/10/08 10:27:51;;;;;;;36.45;14.60;;;17.50;99.90;;;;;;4997627;28;20030;-92
2023/10/08 10:30:18;;;;;;;40.72;15.30;;;17.60;99.90;;;;;;4997638;28;20031;-92
2023/10/08 10:32:47;;;;;;;40.42;13.95;;;17.60;99.90;;;;;;4999200;28;20113;-94
2023/10/08 10:35:19;;;;;;;39.00;13.23;;;17.70;99.90;;;;;;4998638;28;20524;-92
2023/10/08 10:37:51;;;;;;;33.38;11.88;;;17.80;99.90;;;;;;4998148;28;20031;-92
2023/10/08 10:40:29;;;;;;;32.97;11.48;;;17.80;99.90;;;;;;4998556;28;20037;-93
2023/10/08 10:43:00;;;;;;;33.30;12.27;;;17.80;99.90;;;;;;5016498;28;20022;-94
2023/10/08 10:45:42;;;;;;;29.83;12.05;;;17.80;99.90;;;;;;5006751;28;20061;-94
2023/10/08 10:56:31;;;;;;;24.77;10.35;;;18.10;99.90;;;;;;5000024;28;20042;-94
2023/10/08 10:59:06;;;;;;;31.58;11.05;;;18.20;99.90;;;;;;5001045;28;20038;-94
2023/10/08 11:01:44;;;;;;;21.38;9.35;;;18.30;99.90;;;;;;5021795;28;20037;-95
2023/10/08 11:04:15;;;;;;;21.40;10.48;;;18.50;99.90;;;;;;5000871;28;20026;-93
2023/10/08 11:06:50;;;;;;;25.77;10.70;;;18.70;99.90;;;;;;5017533;28;20026;-93
2023/10/08 11:09:22;;;;;;;24.80;9.13;;;19.00;99.90;;;;;;5021586;28;20027;-95
2023/10/08 11:11:54;;;;;;;23.55;8.90;;;19.40;99.90;;;;;;5017014;28;20030;-92
2023/10/08 11:14:23;;;;;;;24.52;8.98;;;19.80;99.90;;;;;;5015453;28;20046;-93
2023/10/08 11:16:58;;;;;;;25.63;9.55;;;20.10;99.90;;;;;;5015693;28;20030;-92
2023/10/08 11:19:27;;;;;;;27.27;9.13;;;20.40;99.90;;;;;;5015661;28;20030;-93
2023/10/08 11:21:55;;;;;;;26.98;8.43;;;20.80;99.90;;;;;;4998965;28;20053;-93
2023/10/08 11:24:33;;;;;;;25.13;7.78;;;21.00;99.90;;;;;;5012442;28;20034;-93
2023/10/08 11:29:59;;;;;;;22.00;8.48;;;21.50;99.90;;;;;;4996610;28;20060;-93
2023/10/08 11:32:33;;;;;;;29.67;7.93;;;21.70;99.90;;;;;;4996627;28;20037;-92
2023/10/08 11:35:00;;;;;;;25.70;8.93;;;21.90;99.90;;;;;;4996819;28;20072;-94
2023/10/08 11:37:33;;;;;;;17.83;7.95;;;22.10;99.90;;;;;;4996606;28;20072;-92
2023/10/08 11:40:08;;;;;;;18.92;6.47;;;22.30;99.90;;;;;;4998778;28;20057;-94
2023/10/08 11:45:24;;;;;;;18.63;6.63;;;22.90;99.90;;;;;;4995650;28;20053;-94
2023/10/08 11:48:06;;;;;;;13.48;5.65;;;23.20;99.90;;;;;;4993650;28;20122;-90
2023/10/08 11:50:32;;;;;;;15.95;6.72;;;23.50;99.90;;;;;;4993810;28;20504;-91
2023/10/08 11:53:06;;;;;;;15.98;6.10;;;23.80;99.90;;;;;;4993195;28;20026;-92
2023/10/08 11:55:38;;;;;;;16.58;6.35;;;24.20;99.40;;;;;;4993656;28;20076;-92
2023/10/08 11:58:12;;;;;;;19.60;5.82;;;24.60;97.50;;;;;;4994494;28;20588;-92
2023/10/08 12:00:44;;;;;;;15.40;5.75;;;24.90;95.90;;;;;;4993869;28;20053;-93
2023/10/08 12:03:11;;;;;;;15.85;6.72;;;25.30;94.30;;;;;;4993438;28;20109;-91
2023/10/08 12:05:46;;;;;;;14.52;5.50;;;25.70;93.00;;;;;;4993596;28;20034;-94
2023/10/08 12:08:16;;;;;;;21.75;6.10;;;25.80;91.30;;;;;;4993468;28;20030;-91
2023/10/08 12:10:43;;;;;;;12.65;4.68;;;25.90;90.20;;;;;;4993827;28;20023;-92
2023/10/08 12:13:10;;;;;;;16.13;5.40;;;25.90;89.30;;;;;;4992870;28;20053;-92
2023/10/08 12:15:41;;;;;;;11.82;5.50;;;25.80;87.20;;;;;;4991860;28;20061;-92
2023/10/08 12:18:24;;;;;;;16.05;6.57;;;25.60;86.60;;;;;;4993093;28;20050;-91
2023/10/08 12:20:50;;;;;;;14.38;5.20;;;25.30;86.60;;;;;;4995762;28;20030;-92
2023/10/08 12:23:25;;;;;;;16.63;4.93;;;25.30;86.90;;;;;;5000432;28;20030;-92
2023/10/08 12:25:57;;;;;;;12.90;4.95;;;25.30;87.20;;;;;;5003616;28;20114;-91
2023/10/08 12:28:29;;;;;;;15.10;5.50;;;25.40;86.90;;;;;;5004592;28;20042;-92
2023/10/08 12:30:57;;;;;;;14.30;5.25;;;25.40;85.80;;;;;;4999539;28;20117;-92
2023/10/08 12:33:26;;;;;;;15.23;5.50;;;25.40;85.40;;;;;;5004263;28;20023;-93
2023/10/08 12:36:05;;;;;;;10.57;3.78;;;25.10;84.70;;;;;;5001881;28;20097;-90
2023/10/08 12:38:31;;;;;;;8.27;3.58;;;24.80;84.50;;;;;;5005019;28;20046;-92
2023/10/08 12:40:59;;;;;;;7.90;3.80;;;24.50;83.80;;;;;;5004829;28;20027;-91
2023/10/08 12:43:27;;;;;;;11.77;3.90;;;24.40;83.40;;;;;;5005141;28;20053;-92
2023/10/08 12:45:54;;;;;;;7.68;3.78;;;24.20;83.40;;;;;;4999295;28;20131;-92
2023/10/08 12:48:27;;;;;;;9.50;3.50;;;24.10;83.40;;;;;;4999847;28;20042;-93
2023/10/08 12:51:05;;;;;;;8.93;3.45;;;24.00;82.80;;;;;;4991339;28;20080;-93
2023/10/08 12:53:36;;;;;;;8.35;2.90;;;23.90;82.30;;;;;;4990502;28;20041;-93
2023/10/08 12:56:14;;;;;;;10.68;3.22;;;23.80;82.00;;;;;;4995279;28;20034;-92
2023/10/08 12:58:43;;;;;;;10.63;3.42;;;23.70;81.40;;;;;;4994412;28;20034;-93
2023/10/08 13:01:13;;;;;;;9.52;3.38;;;23.60;81.20;;;;;;4992811;28;20081;-92
2023/10/08 13:03:42;;;;;;;5.75;2.95;;;23.40;81.00;;;;;;4994378;28;20022;-93
2023/10/08 13:06:21;;;;;;;9.07;2.97;;;23.30;80.80;;;;;;4997904;28;20037;-93
2023/10/08 13:08:49;;;;;;;6.32;2.83;;;23.20;80.80;;;;;;4999739;28;20026;-93
2023/10/08 13:11:15;;;;;;;5.95;3.40;;;23.20;81.20;;;;;;4998398;28;20110;-92
2023/10/08 13:13:41;;;;;;;9.07;3.30;;;23.20;81.10;;;;;;4997406;28;20023;-93
2023/10/08 13:16:09;;;;;;;6.93;3.45;;;23.10;81.00;;;;;;4997188;28;20030;-92
2023/10/08 13:18:37;;;;;;;7.40;3.45;;;23.10;81.10;;;;;;4997762;28;20040;-93
2023/10/08 13:21:08;;;;;;;6.00;3.05;;;23.00;81.20;;;;;;4997656;28;20038;-93
2023/10/08 13:23:37;;;;;;;7.82;3.83;;;23.10;81.70;;;;;;4997847;28;20030;-93
2023/10/08 13:26:09;;;;;;;11.80;3.38;;;23.20;82.30;;;;;;5009169;28;20109;-91
2023/10/08 13:28:36;;;;;;;8.50;3.67;;;23.20;82.40;;;;;;5016867;28;20030;-92
2023/10/08 13:31:10;;;;;;;10.13;3.13;;;23.30;81.80;;;;;;5006408;28;20547;-92
2023/10/08 13:33:42;;;;;;;8.60;3.03;;;23.40;81.50;;;;;;4999575;28;20570;-93
2023/10/08 13:36:15;;;;;;;8.38;3.10;;;23.50;81.30;;;;;;4997465;28;20113;-93
2023/10/08 13:38:41;;;;;;;8.00;3.20;;;23.50;80.60;;;;;;4997084;28;20046;-94
2023/10/08 13:41:16;;;;;;;8.57;3.45;;;23.60;79.60;;;;;;4996974;28;20027;-93
2023/10/08 13:43:45;;;;;;;7.90;3.25;;;23.70;78.60;;;;;;4995944;28;20503;-93
2023/10/08 13:46:13;;;;;;;6.45;3.03;;;23.90;77.90;;;;;;4993095;28;20093;-91
2023/10/08 13:48:40;;;;;;;8.57;2.72;;;24.10;77.00;;;;;;4992501;28;20027;-93
2023/10/08 13:51:11;;;;;;;6.32;3.08;;;24.30;76.30;;;;;;4992005;28;20042;-93
2023/10/08 13:53:39;;;;;;;;;;;24.70;75.70;;;;;;4992137;28;20029;-94
2023/10/08 13:56:07;;;;;;;6.95;2.63;;;25.10;74.50;;;;;;4994181;28;19965;-94
2023/10/08 13:58:40;;;;;;;5.80;3.22;;;25.40;73.60;;;;;;4993031;28;20038;-94